Portknockie, United Kingdom
Current Conditions -  °F | °C
As of 8:50 AM on Monday 24 Nov 2014 (Local Time) from EGQS Reporting Station
Broken Clouds Broken Clouds  
Wind Chill: 41°   Ceiling: 18000
Heat Index: 46°   Visibility: 6mi
Dew Point: 37°   Wind: 10mph
Humidity: 71%   Direction: 250°WSW
Pressure: 30.09"   Gusts: NA
Location:  57.7°N, 2.86°W
Report Text: EGQS 240850Z 25009KT 9999 FEW020 BKN180 08/03 Q1019 BLU NOSIG
Loading
Personal Weather Stations






























Interactive Weather Map New forecast layout! Learn more

10-Day Weather Forecast

Advertisements
Track Severe Weather on mobile